createdAt,value
2022-10-10T00:00:39.773Z,99553.10
2022-10-10T00:05:41.737Z,99550.61
2022-10-10T00:10:43.434Z,99544.02
2022-10-10T00:15:48.678Z,99540.98
2022-10-10T00:20:52.639Z,99542.70
2022-10-10T00:25:54.659Z,99538.18
2022-10-10T00:30:56.444Z,99533.53
2022-10-10T00:35:58.152Z,99527.34
2022-10-10T00:41:00.792Z,99524.09
2022-10-10T00:46:02.504Z,99520.84
2022-10-10T00:51:15.068Z,99512.27
2022-10-10T00:56:21.354Z,99508.21
2022-10-10T01:01:23.201Z,99500.13
2022-10-10T01:06:25.125Z,99499.23
2022-10-10T01:11:48.600Z,99499.06
2022-10-10T01:17:16.668Z,99490.11
2022-10-10T01:22:26.082Z,99490.52
2022-10-10T01:27:42.704Z,99487.82
2022-10-10T01:33:08.607Z,99486.59
2022-10-10T01:38:50.776Z,99483.64
2022-10-10T01:43:57.807Z,99480.91
2022-10-10T01:49:00.908Z,99477.02
2022-10-10T01:54:05.406Z,99476.98
2022-10-10T01:59:25.186Z,99474.27
2022-10-10T02:04:31.940Z,99471.13
2022-10-10T02:09:40.810Z,99465.17
2022-10-10T02:14:51.164Z,99464.38
2022-10-10T02:19:56.902Z,99460.35
2022-10-10T02:24:58.802Z,99456.67
2022-10-10T02:30:02.694Z,99458.81
2022-10-10T02:35:09.481Z,99451.69
2022-10-10T02:40:14.210Z,99450.12
2022-10-10T02:45:16.552Z,99450.55
2022-10-10T02:50:18.324Z,99453.23
2022-10-10T02:55:20.327Z,99447.43
2022-10-10T03:00:22.032Z,99443.97
2022-10-10T03:05:23.727Z,99434.87
2022-10-10T03:10:25.374Z,99433.16
2022-10-10T03:15:27.011Z,99431.95
2022-10-10T03:20:28.680Z,99423.30
2022-10-10T03:25:30.337Z,99419.53
2022-10-10T03:30:32.026Z,99416.21
2022-10-10T03:35:33.850Z,99415.84
2022-10-10T03:40:40.844Z,99411.59
2022-10-10T03:45:44.270Z,99408.89
2022-10-10T03:50:45.983Z,99411.16
2022-10-10T03:55:47.675Z,99406.45
2022-10-10T04:00:57.178Z,99404.80
2022-10-10T04:05:58.929Z,99402.88
2022-10-10T04:11:00.614Z,99398.98
2022-10-10T04:16:02.351Z,99395.85
2022-10-10T04:21:05.504Z,99394.73
2022-10-10T04:26:08.215Z,99392.45
2022-10-10T04:31:09.956Z,99392.23
2022-10-10T04:36:11.712Z,99391.52
2022-10-10T04:41:13.356Z,99389.69
2022-10-10T04:46:15.062Z,99391.46
2022-10-10T04:51:17.213Z,99391.50
2022-10-10T04:56:18.891Z,99389.22
2022-10-10T05:01:20.643Z,99390.81
2022-10-10T05:06:22.468Z,99392.33
2022-10-10T05:11:24.120Z,99388.88
2022-10-10T05:16:25.920Z,99388.55
2022-10-10T05:21:28.624Z,99380.70
2022-10-10T05:26:30.548Z,99378.95
2022-10-10T05:31:32.370Z,99374.39
2022-10-10T05:36:34.072Z,99374.32
2022-10-10T05:41:36.616Z,99372.52
2022-10-10T05:46:38.452Z,99372.55
2022-10-10T05:51:40.215Z,99376.45
2022-10-10T05:56:42.014Z,99372.23
2022-10-10T06:01:43.716Z,99369.59
2022-10-10T06:06:45.694Z,99374.82
2022-10-10T06:11:47.336Z,99377.27
2022-10-10T06:16:49.019Z,99375.67
2022-10-10T06:21:50.699Z,99372.34
2022-10-10T06:26:52.588Z,99372.05
2022-10-10T06:31:54.328Z,99371.36
2022-10-10T06:36:56.136Z,99371.30
2022-10-10T06:41:57.920Z,99375.83
2022-10-10T06:47:00.770Z,99379.06
2022-10-10T06:52:02.538Z,99373.75
2022-10-10T06:57:04.266Z,99373.65
2022-10-10T07:02:05.962Z,99374.91
2022-10-10T07:07:07.676Z,99377.31
2022-10-10T07:12:10.186Z,99380.21
2022-10-10T07:17:11.876Z,99379.59
2022-10-10T07:22:14.103Z,99380.05
2022-10-10T07:27:15.779Z,99381.05
2022-10-10T07:32:17.488Z,99384.35
2022-10-10T07:37:19.117Z,99383.45
2022-10-10T07:42:21.530Z,99380.52
2022-10-10T07:47:23.284Z,99379.16
2022-10-10T07:52:24.984Z,99376.29
2022-10-10T07:57:26.810Z,99369.18
2022-10-10T08:02:28.504Z,99370.06
2022-10-10T08:07:30.437Z,99367.17
2022-10-10T08:12:32.092Z,99363.59
2022-10-10T08:17:34.288Z,99361.67
2022-10-10T08:22:35.975Z,99358.27
2022-10-10T08:27:37.732Z,99360.04
2022-10-10T08:32:39.493Z,99351.73
2022-10-10T08:37:41.115Z,99351.38
2022-10-10T08:42:52.635Z,99347.48
2022-10-10T08:48:03.117Z,99344.17
2022-10-10T08:53:14.245Z,99343.00
2022-10-10T08:58:23.961Z,99344.64
2022-10-10T09:03:48.877Z,99345.74
2022-10-10T09:09:11.942Z,99341.45
2022-10-10T09:14:25.740Z,99342.95
2022-10-10T09:19:43.046Z,99339.36
2022-10-10T09:24:59.127Z,99333.67
2022-10-10T09:30:20.819Z,99324.63
2022-10-10T09:35:29.288Z,99319.65
2022-10-10T09:40:37.718Z,99315.34
2022-10-10T09:45:46.332Z,99307.37
2022-10-10T09:50:48.138Z,99304.93
2022-10-10T09:55:53.821Z,99300.80
2022-10-10T10:01:10.077Z,99294.55
2022-10-10T10:06:15.249Z,99297.85
2022-10-10T10:11:28.308Z,99290.84
2022-10-10T10:16:39.123Z,99289.21
2022-10-10T10:21:51.844Z,99284.23
2022-10-10T10:26:53.597Z,99278.00
2022-10-10T10:32:22.303Z,99277.84
2022-10-10T10:37:35.866Z,99272.05
2022-10-10T10:42:59.368Z,99270.42
2022-10-10T10:48:25.268Z,99263.52
2022-10-10T10:53:40.529Z,99258.71
2022-10-10T11:05:24.219Z,99242.70
2022-10-10T11:10:21.099Z,99235.20
2022-10-10T11:15:53.992Z,99232.83
2022-10-10T11:21:07.135Z,99227.17
2022-10-10T11:26:18.145Z,99218.55
2022-10-10T11:31:33.060Z,99213.11
2022-10-10T11:36:38.956Z,99203.48
2022-10-10T11:41:47.391Z,99198.39
2022-10-10T11:47:17.369Z,99194.92
2022-10-10T11:52:54.206Z,99189.46
2022-10-10T11:58:19.383Z,99181.00
2022-10-10T12:03:21.057Z,99173.02
2022-10-10T12:08:36.039Z,99164.16
2022-10-10T12:13:42.965Z,99153.52
2022-10-10T12:18:53.694Z,99151.23
2022-10-10T12:24:13.780Z,99144.67
2022-10-10T12:29:51.257Z,99139.38
2022-10-10T12:34:53.051Z,99132.51
2022-10-10T12:40:06.945Z,99124.85
2022-10-10T12:45:30.750Z,99120.88
2022-10-10T12:50:37.044Z,99115.46
2022-10-10T12:55:45.084Z,99109.42
2022-10-10T13:00:48.520Z,99106.83
2022-10-10T13:05:52.419Z,99098.41
2022-10-10T13:11:15.682Z,99086.02
2022-10-10T13:16:20.191Z,99079.00
2022-10-10T13:21:27.617Z,99073.46
2022-10-10T13:26:36.499Z,99073.66
2022-10-10T13:31:38.506Z,99065.27
2022-10-10T13:36:40.332Z,99056.67
2022-10-10T13:41:52.753Z,99054.29
2022-10-10T13:46:54.491Z,99054.21
2022-10-10T13:52:20.487Z,99054.96
2022-10-10T13:57:25.917Z,99047.73
2022-10-10T14:02:33.690Z,99046.63
2022-10-10T14:07:36.605Z,99043.88
2022-10-10T14:12:49.163Z,99035.11
2022-10-10T14:17:50.813Z,99030.63
2022-10-10T14:22:52.533Z,99031.92
2022-10-10T14:27:54.231Z,99027.90
2022-10-10T14:32:56.216Z,99024.88
2022-10-10T14:37:57.980Z,99017.55
2022-10-10T14:43:00.280Z,99018.88
2022-10-10T14:48:02.077Z,99017.05
2022-10-10T14:53:04.864Z,99014.77
2022-10-10T14:58:06.746Z,99010.27
2022-10-10T15:03:08.486Z,99009.60
2022-10-10T15:08:14.594Z,99006.14
2022-10-10T15:13:16.350Z,98999.55
2022-10-10T15:18:49.221Z,99007.14
2022-10-10T15:23:40.064Z,99010.70
2022-10-10T15:28:41.871Z,99008.86
2022-10-10T15:33:43.685Z,99005.36
2022-10-10T15:38:45.399Z,99007.48
2022-10-10T15:43:54.621Z,99007.78
2022-10-10T15:49:01.504Z,99006.60
2022-10-10T15:54:04.373Z,99001.63
2022-10-10T15:59:08.352Z,99000.27
2022-10-10T16:04:10.890Z,99004.50
2022-10-10T16:09:27.809Z,99007.47
2022-10-10T16:14:30.763Z,99007.19
2022-10-10T16:19:32.485Z,99005.16
2022-10-10T16:24:34.313Z,99004.64
2022-10-10T16:29:35.944Z,99007.39
2022-10-10T16:34:37.821Z,99007.60
2022-10-10T16:39:40.185Z,99001.86
2022-10-10T16:44:41.958Z,98993.78
2022-10-10T16:49:43.628Z,98999.67
2022-10-10T16:54:49.890Z,98987.97
2022-10-10T16:59:53.651Z,98992.56
2022-10-10T17:04:57.397Z,99001.14
2022-10-10T17:09:59.089Z,99002.77
2022-10-10T17:15:01.672Z,98995.25
2022-10-10T17:20:05.452Z,98990.75
2022-10-10T17:25:07.729Z,98994.70
2022-10-10T17:30:12.604Z,98993.56
2022-10-10T17:35:14.324Z,98986.27
2022-10-10T17:40:16.300Z,98983.66
2022-10-10T17:45:18.041Z,98982.16
2022-10-10T17:50:19.945Z,98979.57
2022-10-10T17:55:21.736Z,98984.97
2022-10-10T18:00:23.499Z,98985.58
2022-10-10T18:05:25.293Z,98974.61
2022-10-10T18:10:27.171Z,98984.04
2022-10-10T18:15:29.840Z,98974.55
2022-10-10T18:20:31.608Z,98977.27
2022-10-10T18:25:34.114Z,98979.30
2022-10-10T18:30:40.151Z,98975.64
2022-10-10T18:35:41.873Z,98979.40
2022-10-10T18:40:43.641Z,98973.41
2022-10-10T18:45:45.365Z,98975.56
2022-10-10T18:50:47.054Z,98971.86
2022-10-10T18:55:55.288Z,98960.33
2022-10-10T19:01:02.663Z,98958.66
2022-10-10T19:06:06.971Z,98957.13
2022-10-10T19:11:19.008Z,98954.80
2022-10-10T19:16:21.186Z,98946.96
2022-10-10T19:21:22.892Z,98949.71
2022-10-10T19:26:25.149Z,98944.42
2022-10-10T19:31:30.098Z,98944.44
2022-10-10T19:36:31.827Z,98947.14
2022-10-10T19:41:33.646Z,98944.14
2022-10-10T19:46:37.372Z,98945.58
2022-10-10T19:51:39.623Z,98950.05
2022-10-10T19:56:41.273Z,98958.98
2022-10-10T20:01:43.010Z,98954.39
2022-10-10T20:06:44.989Z,98955.86
2022-10-10T20:11:46.660Z,98956.69
2022-10-10T20:16:48.319Z,98953.91
2022-10-10T20:21:50.571Z,98961.08
2022-10-10T20:26:53.673Z,98956.44
2022-10-10T20:31:55.331Z,98955.27
2022-10-10T20:36:57.196Z,98958.34
2022-10-10T20:41:58.970Z,98961.07
2022-10-10T20:47:00.592Z,98964.80
2022-10-10T20:52:02.378Z,98965.20
2022-10-10T20:57:04.077Z,98972.13
2022-10-10T21:02:06.257Z,98975.83
2022-10-10T21:07:07.973Z,98976.13
2022-10-10T21:12:09.707Z,98976.33
2022-10-10T21:17:17.711Z,98979.25
2022-10-10T21:22:19.582Z,98981.76
2022-10-10T21:27:21.526Z,98984.21
2022-10-10T21:32:23.233Z,98978.80
2022-10-10T21:37:28.640Z,98982.66
2022-10-10T21:42:30.317Z,98978.03
2022-10-10T21:47:32.067Z,98977.16
2022-10-10T21:52:38.990Z,98982.19
2022-10-10T21:57:40.729Z,98989.85
2022-10-10T22:02:42.926Z,98991.96
2022-10-10T22:07:45.620Z,98985.99
2022-10-10T22:12:47.430Z,98987.16
2022-10-10T22:17:49.157Z,98986.30
2022-10-10T22:22:50.900Z,98985.17
2022-10-10T22:27:56.989Z,98988.30
2022-10-10T22:32:59.060Z,98986.63
2022-10-10T22:38:01.623Z,98985.69
2022-10-10T22:43:03.387Z,98981.39
2022-10-10T22:48:05.303Z,98984.80
2022-10-10T22:53:07.019Z,98988.25
2022-10-10T22:58:09.101Z,98994.92
2022-10-10T23:03:10.845Z,99002.02
2022-10-10T23:08:12.920Z,99001.11
2022-10-10T23:13:23.537Z,99007.59
2022-10-10T23:18:25.219Z,99018.77
2022-10-10T23:23:26.984Z,99019.50
2022-10-10T23:28:28.720Z,99020.33
2022-10-10T23:33:34.598Z,99019.55
2022-10-10T23:38:39.219Z,99029.05
2022-10-10T23:43:40.921Z,99031.42
2022-10-10T23:48:43.462Z,99033.31
2022-10-10T23:53:45.092Z,99036.05
2022-10-10T23:58:47.146Z,99040.54
